Time;durP1;ratioP1;P1;durP2;ratioP2;P2;SDS_P1;SDS_P2;PMS_P1;PMS_P2;Temp;Humidity;BMP_temperature;BMP_pressure;BME280_temperature;BME280_humidity;BME280_pressure;Samples;Min_cycle;Max_cycle;Signal;HPM_P1;HPM_P2
2022/05/19 00:00:31;;;;;;;17.50;14.77;;;19.50;99.90;;;;;;5051691;28;20252;-66
2022/05/19 00:02:58;;;;;;;15.63;14.10;;;19.50;99.90;;;;;;5051714;28;20211;-66
2022/05/19 00:05:26;;;;;;;16.50;14.73;;;19.40;99.90;;;;;;5052034;28;20204;-65
2022/05/19 00:07:53;;;;;;;16.53;15.00;;;19.40;99.90;;;;;;5052103;28;20417;-66
2022/05/19 00:10:20;;;;;;;18.70;16.90;;;19.30;99.90;;;;;;5052013;28;20282;-66
2022/05/19 00:12:47;;;;;;;18.13;16.33;;;19.30;99.90;;;;;;5051970;28;20191;-66
2022/05/19 00:15:15;;;;;;;17.87;16.17;;;19.30;99.90;;;;;;5051920;28;20191;-66
2022/05/19 00:17:42;;;;;;;17.47;15.80;;;19.30;99.90;;;;;;5051659;28;20214;-66
2022/05/19 00:20:10;;;;;;;17.60;15.77;;;19.30;99.90;;;;;;5051981;28;20192;-65
2022/05/19 00:22:37;;;;;;;16.27;14.80;;;19.30;99.90;;;;;;5051385;28;20285;-66
2022/05/19 00:25:05;;;;;;;16.90;15.13;;;19.30;99.90;;;;;;5051985;28;20214;-66
2022/05/19 00:27:32;;;;;;;16.73;14.93;;;19.20;99.90;;;;;;5051851;28;20206;-66
2022/05/19 00:29:59;;;;;;;17.30;15.70;;;19.20;99.90;;;;;;5051537;28;20231;-66
2022/05/19 00:32:27;;;;;;;17.97;16.07;;;19.10;99.90;;;;;;5051833;28;20245;-66
2022/05/19 00:34:54;;;;;;;17.47;15.80;;;19.00;99.90;;;;;;5051778;28;20196;-65
2022/05/19 00:37:21;;;;;;;16.53;14.90;;;19.10;99.90;;;;;;5051761;28;20339;-66
2022/05/19 00:39:48;;;;;;;17.57;15.93;;;19.10;99.90;;;;;;5051736;28;20199;-66
2022/05/19 00:45:01;;;;;;;17.60;15.80;;;19.00;99.90;;;;;;5051808;28;20537;-65
2022/05/19 00:47:36;;;;;;;16.27;14.60;;;19.00;99.90;;;;;;5051660;28;20203;-66
2022/05/19 00:50:05;;;;;;;15.83;14.30;;;19.00;99.90;;;;;;5051633;28;20211;-66
2022/05/19 00:52:38;;;;;;;17.10;15.47;;;19.10;99.90;;;;;;5055179;28;20191;-66
2022/05/19 00:55:09;;;;;;;16.93;15.33;;;19.00;99.90;;;;;;5055448;28;20199;-66
2022/05/19 00:57:41;;;;;;;16.70;14.83;;;18.90;99.90;;;;;;5055246;28;20176;-66
2022/05/19 01:00:11;;;;;;;19.77;15.73;;;18.90;99.90;;;;;;5055266;28;20195;-65
2022/05/19 01:02:41;;;;;;;17.00;15.30;;;18.80;99.90;;;;;;5055146;28;20219;-65
2022/05/19 01:05:12;;;;;;;17.30;15.60;;;18.90;99.90;;;;;;5054944;28;20187;-65
2022/05/19 01:07:46;;;;;;;16.30;14.80;;;18.90;99.90;;;;;;5055107;28;20187;-65
2022/05/19 01:10:13;;;;;;;16.17;14.67;;;18.80;99.90;;;;;;5054723;28;20641;-66
2022/05/19 01:12:41;;;;;;;17.03;15.47;;;18.70;99.90;;;;;;5054999;28;20523;-66
2022/05/19 01:15:09;;;;;;;14.77;13.57;;;18.50;99.90;;;;;;5054930;28;20269;-66
2022/05/19 01:17:36;;;;;;;14.33;12.83;;;18.60;99.90;;;;;;5054919;28;20606;-65
2022/05/19 01:20:12;;;;;;;14.23;13.03;;;18.70;99.90;;;;;;5054872;28;20195;-65
2022/05/19 01:22:46;;;;;;;13.10;11.97;;;18.80;99.90;;;;;;5054688;28;20564;-65
2022/05/19 01:25:20;;;;;;;12.10;10.00;;;18.80;99.90;;;;;;5054873;28;20226;-66
2022/05/19 01:27:49;;;;;;;11.10;10.00;;;18.90;99.90;;;;;;5054766;28;20282;-66
2022/05/19 01:30:16;;;;;;;10.60;9.60;;;19.00;99.90;;;;;;5054383;28;20239;-65
2022/05/19 01:32:43;;;;;;;9.97;9.03;;;19.00;99.90;;;;;;5054635;28;20203;-65
2022/05/19 01:35:10;;;;;;;10.37;9.33;;;19.20;99.90;;;;;;5054329;28;20576;-65
2022/05/19 01:37:37;;;;;;;10.70;9.20;;;19.20;99.90;;;;;;5054582;28;20200;-66
2022/05/19 01:40:11;;;;;;;9.63;8.80;;;19.20;99.90;;;;;;5054536;28;20253;-66
2022/05/19 01:42:53;;;;;;;10.33;8.73;;;19.20;99.90;;;;;;5054416;28;20207;-66
2022/05/19 01:45:45;;;;;;;9.20;7.80;;;19.10;99.90;;;;;;5054551;28;20206;-66
2022/05/19 01:48:18;;;;;;;9.50;7.80;;;19.10;99.90;;;;;;5054439;28;20187;-66
2022/05/19 01:50:50;;;;;;;7.73;7.03;;;19.00;99.90;;;;;;5054189;28;20180;-66
2022/05/19 01:53:24;;;;;;;7.90;7.10;;;19.00;99.90;;;;;;5053968;28;20180;-66
2022/05/19 01:56:00;;;;;;;7.53;6.50;;;19.00;99.90;;;;;;5053992;28;20625;-66
2022/05/19 01:58:33;;;;;;;9.40;6.13;;;19.10;99.90;;;;;;5054065;28;20195;-66
2022/05/19 02:01:04;;;;;;;7.13;6.23;;;19.00;99.90;;;;;;5053948;28;20188;-66
2022/05/19 02:03:41;;;;;;;6.97;5.97;;;19.10;99.90;;;;;;5053927;28;20211;-65
2022/05/19 02:06:14;;;;;;;6.90;6.20;;;19.10;99.90;;;;;;5054017;28;20180;-65
2022/05/19 02:08:47;;;;;;;6.93;6.23;;;19.10;99.90;;;;;;5053968;28;20617;-66
2022/05/19 02:11:19;;;;;;;6.57;5.60;;;19.20;99.90;;;;;;5053608;28;20249;-66
2022/05/19 02:13:48;;;;;;;6.03;5.53;;;19.20;99.90;;;;;;5053946;28;20188;-65
2022/05/19 02:16:17;;;;;;;6.73;5.27;;;19.20;99.90;;;;;;5053836;28;20218;-65
2022/05/19 02:18:47;;;;;;;7.00;5.67;;;19.30;99.90;;;;;;5053482;28;20294;-65
2022/05/19 02:21:14;;;;;;;6.23;5.40;;;19.20;99.90;;;;;;5053619;28;20212;-65
2022/05/19 02:23:42;;;;;;;6.00;5.40;;;19.30;99.90;;;;;;5053628;28;20632;-65
2022/05/19 02:26:09;;;;;;;6.57;5.10;;;19.30;99.90;;;;;;5053757;28;20196;-66
2022/05/19 02:28:41;;;;;;;6.43;5.23;;;19.20;99.90;;;;;;5053539;28;20222;-65
2022/05/19 02:31:09;;;;;;;5.90;5.40;;;19.20;99.90;;;;;;5053162;28;20243;-66
2022/05/19 02:33:37;;;;;;;6.77;5.33;;;19.20;99.90;;;;;;5053479;28;20210;-65
2022/05/19 02:36:04;;;;;;;6.00;5.20;;;19.20;99.90;;;;;;5053182;28;20650;-65
2022/05/19 02:38:31;;;;;;;7.93;5.83;;;19.10;99.90;;;;;;5053389;28;20204;-66
2022/05/19 02:40:58;;;;;;;6.43;5.20;;;19.10;99.90;;;;;;5053372;28;20203;-66
2022/05/19 02:43:25;;;;;;;5.40;4.90;;;19.10;99.90;;;;;;5053227;28;20223;-65
2022/05/19 02:45:53;;;;;;;9.73;5.20;;;19.10;99.90;;;;;;5052921;28;20200;-66
2022/05/19 02:48:22;;;;;;;5.43;4.93;;;19.20;99.90;;;;;;5053182;28;20196;-65
2022/05/19 02:50:50;;;;;;;5.40;4.90;;;19.30;99.90;;;;;;5053104;28;20211;-66
2022/05/19 02:53:18;;;;;;;7.40;4.73;;;19.30;99.90;;;;;;5052982;28;20199;-66
2022/05/19 02:55:46;;;;;;;5.67;4.90;;;19.30;99.90;;;;;;5053082;28;20207;-66
2022/05/19 02:58:14;;;;;;;6.07;5.10;;;19.30;99.90;;;;;;5052783;28;20673;-66
2022/05/19 03:00:42;;;;;;;6.70;5.20;;;19.30;99.90;;;;;;5052604;28;20203;-65
2022/05/19 03:03:09;;;;;;;6.90;4.97;;;19.40;99.90;;;;;;5052921;28;20220;-65
2022/05/19 03:05:38;;;;;;;5.87;4.90;;;19.30;99.90;;;;;;5052941;28;20306;-65
2022/05/19 03:08:06;;;;;;;9.27;4.73;;;19.40;99.90;;;;;;5052773;28;20196;-65
2022/05/19 03:10:35;;;;;;;5.53;5.00;;;19.40;99.90;;;;;;5052527;28;20219;-66
2022/05/19 03:13:02;;;;;;;6.40;5.00;;;19.40;99.90;;;;;;5052279;28;20275;-66
2022/05/19 03:15:29;;;;;;;7.70;5.13;;;19.50;99.90;;;;;;5052592;28;20203;-65
2022/05/19 03:17:57;;;;;;;4.97;4.57;;;19.50;99.90;;;;;;5052667;28;20200;-65
2022/05/19 03:20:24;;;;;;;6.43;4.57;;;19.50;99.90;;;;;;5052670;28;20191;-65
2022/05/19 03:22:52;;;;;;;5.07;4.40;;;19.60;99.90;;;;;;5052111;28;20277;-65
2022/05/19 03:25:19;;;;;;;5.03;4.33;;;19.60;99.90;;;;;;5052613;28;20203;-65
2022/05/19 03:27:46;;;;;;;6.00;4.60;;;19.60;99.90;;;;;;5052215;28;20199;-65
2022/05/19 03:30:16;;;;;;;6.03;4.77;;;19.60;99.90;;;;;;5052109;28;20227;-65
2022/05/19 03:32:45;;;;;;;7.00;4.43;;;19.60;99.90;;;;;;5052516;28;20270;-65
2022/05/19 03:35:12;;;;;;;5.53;4.20;;;19.60;99.90;;;;;;5052446;28;20197;-65
2022/05/19 03:37:39;;;;;;;6.17;4.30;;;19.60;99.90;;;;;;5052373;28;20227;-65
2022/05/19 03:40:10;;;;;;;7.03;4.13;;;19.60;99.90;;;;;;5052090;28;20195;-65
2022/05/19 03:42:37;;;;;;;6.00;4.27;;;19.60;99.90;;;;;;5052270;28;20613;-65
2022/05/19 03:45:05;;;;;;;7.47;4.13;;;19.60;99.90;;;;;;5052258;28;20204;-65
2022/05/19 03:47:32;;;;;;;5.27;3.90;;;19.50;99.90;;;;;;5052293;28;20199;-65
2022/05/19 03:49:59;;;;;;;5.23;4.00;;;19.50;99.90;;;;;;5051970;28;20202;-65
2022/05/19 03:52:26;;;;;;;6.00;4.03;;;19.50;99.90;;;;;;5052095;28;20203;-66
2022/05/19 03:54:53;;;;;;;4.67;3.87;;;19.60;99.90;;;;;;5051959;28;20624;-66
2022/05/19 03:57:23;;;;;;;5.67;4.10;;;19.60;99.90;;;;;;5052073;28;20251;-66
2022/05/19 03:59:50;;;;;;;4.25;3.90;;;19.70;99.90;;;;;;5052110;28;20221;-65
2022/05/19 04:02:18;;;;;;;6.53;4.10;;;19.70;99.90;;;;;;5052064;28;20211;-65
2022/05/19 04:04:44;;;;;;;11.63;5.80;;;19.60;99.90;;;;;;5052090;28;20196;-65
2022/05/19 04:07:11;;;;;;;7.77;6.47;;;19.60;99.90;;;;;;5052074;28;20217;-65
2022/05/19 04:09:38;;;;;;;9.67;6.03;;;19.40;99.90;;;;;;5051805;28;20197;-65
2022/05/19 04:12:07;;;;;;;7.47;6.23;;;19.60;99.90;;;;;;5051967;28;20195;-66
2022/05/19 04:14:36;;;;;;;6.40;5.40;;;19.60;99.90;;;;;;5052082;28;20195;-64
2022/05/19 04:17:03;;;;;;;7.60;5.80;;;19.90;99.90;;;;;;5051673;28;20687;-66
2022/05/19 04:19:30;;;;;;;6.90;5.70;;;20.00;99.90;;;;;;5051922;28;20195;-66
2022/05/19 04:21:57;;;;;;;7.72;5.43;;;20.10;99.90;;;;;;5051682;28;20199;-66
2022/05/19 04:24:24;;;;;;;6.40;5.33;;;20.20;99.90;;;;;;5051857;28;20602;-66
2022/05/19 04:26:51;;;;;;;7.85;5.60;;;20.20;99.90;;;;;;5054712;28;20195;-66
2022/05/19 04:29:18;;;;;;;7.95;5.20;;;20.30;99.90;;;;;;5055504;28;20215;-66
2022/05/19 04:31:46;;;;;;;6.45;5.15;;;20.20;99.90;;;;;;5055477;28;20655;-65
2022/05/19 04:34:13;;;;;;;6.93;5.00;;;20.10;99.90;;;;;;5055758;28;20611;-64
2022/05/19 04:36:40;;;;;;;7.15;5.88;;;20.10;99.90;;;;;;5055325;28;20206;-65
2022/05/19 04:39:07;;;;;;;7.20;5.37;;;20.10;99.90;;;;;;5055484;28;20264;-66
2022/05/19 04:41:34;;;;;;;9.20;5.60;;;20.10;99.90;;;;;;5055658;28;20320;-66
2022/05/19 04:44:01;;;;;;;6.65;5.70;;;20.10;99.90;;;;;;5055624;28;20278;-66
2022/05/19 04:46:28;;;;;;;6.05;5.45;;;20.20;99.90;;;;;;5055607;28;20199;-66
2022/05/19 04:48:56;;;;;;;6.15;5.07;;;20.20;99.90;;;;;;5055715;28;20241;-66
2022/05/19 04:51:23;;;;;;;6.25;4.90;;;20.30;99.90;;;;;;5055318;28;20214;-66
2022/05/19 04:53:50;;;;;;;6.27;5.33;;;20.30;99.90;;;;;;5054926;28;20194;-66
2022/05/19 04:56:17;;;;;;;12.20;6.20;;;20.30;99.90;;;;;;5061011;28;20553;-67
2022/05/19 04:58:44;;;;;;;10.55;5.68;;;20.40;99.90;;;;;;5064874;28;20193;-65
2022/05/19 05:01:11;;;;;;;21.80;6.70;;;20.40;99.90;;;;;;5065639;28;20198;-66
2022/05/19 05:03:38;;;;;;;27.48;6.85;;;20.50;99.90;;;;;;5061501;28;20219;-65
2022/05/19 05:06:06;;;;;;;15.60;6.40;;;20.60;99.90;;;;;;5055323;28;20256;-64
2022/05/19 05:08:33;;;;;;;6.75;5.50;;;20.70;99.90;;;;;;5051441;28;20249;-63
2022/05/19 05:11:00;;;;;;;13.32;5.90;;;20.80;99.90;;;;;;5051224;28;20203;-64
2022/05/19 05:13:27;;;;;;;20.45;6.70;;;20.90;99.90;;;;;;5063219;28;20179;-65
2022/05/19 05:15:54;;;;;;;22.65;7.00;;;21.20;99.90;;;;;;5064826;28;20679;-64
2022/05/19 05:18:21;;;;;;;15.63;5.95;;;21.70;99.90;;;;;;5065078;28;20207;-64
2022/05/19 05:20:50;;;;;;;14.00;5.75;;;22.10;99.90;;;;;;5060843;28;20191;-66
2022/05/19 05:23:18;;;;;;;9.88;5.75;;;22.50;99.90;;;;;;5064904;28;20214;-64
2022/05/19 05:25:45;;;;;;;7.22;6.20;;;22.60;99.90;;;;;;5055904;28;20203;-65
2022/05/19 05:28:12;;;;;;;6.47;5.88;;;22.80;99.90;;;;;;5055357;28;20191;-65
2022/05/19 05:30:39;;;;;;;7.45;6.70;;;22.60;99.90;;;;;;5064761;28;20726;-65
2022/05/19 05:33:08;;;;;;;10.23;6.80;;;22.80;99.90;;;;;;5063813;28;20200;-64
2022/05/19 05:35:36;;;;;;;9.32;7.10;;;22.70;99.90;;;;;;5060573;28;20207;-64
2022/05/19 05:38:03;;;;;;;7.60;5.63;;;22.80;99.90;;;;;;5054199;28;20191;-65
2022/05/19 05:40:31;;;;;;;6.93;6.22;;;23.20;99.90;;;;;;5054677;28;20593;-64
2022/05/19 05:43:08;;;;;;;7.22;6.07;;;23.60;99.90;;;;;;5054466;28;20199;-65
2022/05/19 05:45:35;;;;;;;6.75;6.05;;;24.00;99.90;;;;;;5054592;28;20282;-65
2022/05/19 05:48:02;;;;;;;7.13;6.43;;;24.30;99.90;;;;;;5054480;28;20214;-65
2022/05/19 05:50:29;;;;;;;8.45;6.40;;;24.40;99.90;;;;;;5054056;28;20199;-66
2022/05/19 05:52:56;;;;;;;7.70;6.82;;;24.50;99.90;;;;;;5053948;28;20705;-66
2022/05/19 05:55:23;;;;;;;7.10;6.50;;;24.60;96.10;;;;;;5053992;28;20195;-65
2022/05/19 05:57:52;;;;;;;7.10;6.40;;;24.40;93.50;;;;;;5054293;28;20203;-66
2022/05/19 06:00:20;;;;;;;10.98;6.57;;;24.30;88.70;;;;;;5054188;28;20206;-65
2022/05/19 06:02:48;;;;;;;14.43;6.65;;;24.00;78.00;;;;;;5054213;28;20535;-66
2022/05/19 06:05:16;;;;;;;8.32;6.88;;;24.00;66.70;;;;;;5053797;28;20737;-65
2022/05/19 06:07:43;;;;;;;12.38;7.28;;;24.00;45.10;;;;;;5053967;28;20207;-65
2022/05/19 06:10:11;;;;;;;14.73;7.30;;;23.70;53.80;;;;;;5053678;28;20228;-66
2022/05/19 06:12:39;;;;;;;10.32;7.28;;;23.30;72.60;;;;;;5054047;28;20261;-65
2022/05/19 06:15:09;;;;;;;19.45;8.02;;;23.20;84.40;;;;;;5053870;28;20295;-65
2022/05/19 06:17:37;;;;;;;11.82;7.65;;;23.00;93.80;;;;;;5054360;28;20564;-65
2022/05/19 06:20:05;;;;;;;20.33;7.38;;;22.90;99.90;;;;;;5053956;28;20298;-66
2022/05/19 06:22:32;;;;;;;13.90;7.75;;;22.90;99.90;;;;;;5053682;28;20200;-64
2022/05/19 06:24:59;;;;;;;14.05;7.68;;;22.90;99.90;;;;;;5053620;28;20219;-63
2022/05/19 06:27:26;;;;;;;10.43;6.85;;;22.90;99.90;;;;;;5053844;28;20207;-65
2022/05/19 06:29:53;;;;;;;11.63;7.50;;;23.10;99.90;;;;;;5053383;28;20204;-62
2022/05/19 06:32:21;;;;;;;10.23;7.40;;;23.30;99.90;;;;;;5053684;28;20192;-62
2022/05/19 06:34:48;;;;;;;13.50;6.90;;;23.60;96.70;;;;;;5053536;28;20191;-62
2022/05/19 06:37:15;;;;;;;13.98;7.30;;;23.70;90.50;;;;;;5053299;28;20634;-62
2022/05/19 06:39:42;;;;;;;10.40;7.45;;;23.60;72.70;;;;;;5053670;28;20210;-63
2022/05/19 06:42:14;;;;;;;11.82;6.72;;;23.60;68.60;;;;;;5053338;28;20669;-63
2022/05/19 06:44:42;;;;;;;13.48;7.25;;;24.00;74.60;;;;;;5053515;28;20200;-62
2022/05/19 06:47:13;;;;;;;8.82;7.20;;;23.80;61.40;;;;;;5053503;28;20213;-62
2022/05/19 06:49:42;;;;;;;8.43;6.50;;;23.80;70.90;;;;;;5052884;28;20203;-62
2022/05/19 06:52:13;;;;;;;9.23;6.10;;;24.00;66.10;;;;;;5053375;28;20210;-62
2022/05/19 06:54:41;;;;;;;7.60;5.03;;;24.60;58.60;;;;;;5053331;28;20237;-62
2022/05/19 06:57:09;;;;;;;5.90;4.63;;;25.60;20.00;;;;;;5053342;28;20257;-62
2022/05/19 06:59:36;;;;;;;5.50;4.95;;;26.10;2.20;;;;;;5052730;28;20764;-61
2022/05/19 07:02:04;;;;;;;7.18;5.35;;;26.40;1.00;;;;;;5053424;28;20222;-62
2022/05/19 07:04:31;;;;;;;6.75;5.15;;;26.60;1.00;;;;;;5052993;28;20688;-61
2022/05/19 07:07:00;;;;;;;7.72;4.95;;;26.90;1.00;;;;;;5053179;28;20203;-62
2022/05/19 07:09:27;;;;;;;5.90;4.88;;;26.90;1.00;;;;;;5052984;28;20666;-63
2022/05/19 07:11:54;;;;;;;8.05;5.35;;;27.30;1.00;;;;;;5052862;28;20195;-63
2022/05/19 07:14:21;;;;;;;6.50;5.88;;;27.60;1.00;;;;;;5053199;28;20537;-63
2022/05/19 07:16:49;;;;;;;9.40;7.30;;;27.50;1.00;;;;;;5053066;28;20191;-63
2022/05/19 07:22:06;;;;;;;6.88;5.50;;;27.30;1.00;;;;;;5053700;28;20171;-62
2022/05/19 07:24:33;;;;;;;7.05;6.03;;;27.60;1.00;;;;;;5053611;28;20200;-62
2022/05/19 07:27:01;;;;;;;7.75;5.60;;;27.20;1.00;;;;;;5052824;28;20199;-63
2022/05/19 07:29:28;;;;;;;6.40;5.78;;;27.00;1.00;;;;;;5052930;28;20223;-62
2022/05/19 07:31:58;;;;;;;7.43;5.80;;;26.10;1.00;;;;;;5052743;28;20235;-61
2022/05/19 07:34:25;;;;;;;8.50;5.53;;;25.80;1.00;;;;;;5053155;28;20257;-61
2022/05/19 07:36:53;;;;;;;8.23;5.22;;;26.30;1.00;;;;;;5053082;28;20199;-61
2022/05/19 07:39:21;;;;;;;9.73;4.97;;;27.20;1.00;;;;;;5052369;28;20202;-62
2022/05/19 07:41:51;;;;;;;7.53;5.35;;;27.50;1.00;;;;;;5052564;28;20207;-62
2022/05/19 07:44:18;;;;;;;6.75;4.97;;;28.00;1.00;;;;;;5052426;28;20215;-62
2022/05/19 07:46:45;;;;;;;9.80;5.55;;;27.60;1.00;;;;;;5052447;28;20199;-62
2022/05/19 07:49:12;;;;;;;5.63;4.80;;;27.70;1.00;;;;;;5052470;28;20207;-63
2022/05/19 07:51:41;;;;;;;18.90;11.77;;;28.10;1.00;;;;;;5052238;28;20205;-62
2022/05/19 07:54:10;;;;;;;37.55;6.65;;;28.20;1.00;;;;;;5052231;28;20581;-64
2022/05/19 07:56:39;;;;;;;5.75;4.88;;;27.70;1.00;;;;;;5052151;28;20668;-64
2022/05/19 07:59:08;;;;;;;6.55;4.90;;;27.20;1.00;;;;;;5052068;28;20238;-64
2022/05/19 08:01:35;;;;;;;9.02;8.43;;;27.70;1.00;;;;;;5051935;28;20290;-65
2022/05/19 08:04:02;;;;;;;6.72;5.68;;;27.80;1.00;;;;;;5052008;28;20587;-64
2022/05/19 08:06:29;;;;;;;7.05;5.03;;;27.50;1.00;;;;;;5052287;28;20203;-64
2022/05/19 08:08:59;;;;;;;6.95;4.72;;;27.50;1.00;;;;;;5052173;28;20285;-65
2022/05/19 08:11:26;;;;;;;6.03;4.82;;;26.80;1.00;;;;;;5051812;28;20690;-64
2022/05/19 08:16:39;;;;;;;12.07;5.68;;;26.80;1.00;;;;;;5051929;28;20188;-63
2022/05/19 08:19:06;;;;;;;5.70;4.85;;;26.00;1.00;;;;;;5052017;28;20629;-64
2022/05/19 08:21:33;;;;;;;9.73;4.63;;;26.20;1.00;;;;;;5051781;28;20203;-63
2022/05/19 08:24:00;;;;;;;11.75;8.45;;;26.50;1.00;;;;;;5051955;28;20211;-66
2022/05/19 08:26:27;;;;;;;13.80;5.50;;;27.00;1.00;;;;;;5051936;28;20206;-65
2022/05/19 08:28:55;;;;;;;7.40;4.70;;;26.90;1.00;;;;;;5051821;28;20203;-63
2022/05/19 08:31:25;;;;;;;9.85;4.85;;;27.60;1.00;;;;;;5051527;28;20246;-64
2022/05/19 08:33:54;;;;;;;12.82;4.43;;;27.70;1.00;;;;;;5052015;28;20186;-64
2022/05/19 08:36:21;;;;;;;9.82;4.18;;;28.30;1.00;;;;;;5051504;28;20234;-64
2022/05/19 08:38:48;;;;;;;7.78;4.55;;;28.10;1.00;;;;;;5051836;28;20303;-64
2022/05/19 08:41:23;;;;;;;13.27;4.95;;;27.90;1.00;;;;;;5051460;28;20599;-65
2022/05/19 08:43:57;;;;;;;8.25;4.93;;;27.90;1.00;;;;;;5051814;28;20183;-66
2022/05/19 08:46:30;;;;;;;10.82;4.85;;;28.00;1.00;;;;;;5051772;28;20283;-67
2022/05/19 08:49:03;;;;;;;7.65;4.65;;;28.20;1.00;;;;;;5051716;28;20191;-65
2022/05/19 08:51:37;;;;;;;8.90;4.15;;;28.20;1.00;;;;;;5051883;28;20192;-66
2022/05/19 08:54:06;;;;;;;7.47;4.88;;;28.40;1.00;;;;;;5051780;28;20565;-65
2022/05/19 08:56:36;;;;;;;6.43;4.55;;;28.80;1.00;;;;;;5051965;28;20210;-66
2022/05/19 08:59:18;;;;;;;5.38;4.32;;;28.60;1.00;;;;;;5051359;28;20282;-65
2022/05/19 09:01:52;;;;;;;4.55;4.10;;;28.70;1.00;;;;;;5051077;28;20191;-65
2022/05/19 09:04:29;;;;;;;5.68;3.90;;;28.70;1.00;;;;;;5051256;28;20676;-64
2022/05/19 09:10:06;;;;;;;7.18;4.30;;;28.70;1.00;;;;;;5050427;28;20188;-65
2022/05/19 09:12:37;;;;;;;8.07;3.65;;;28.70;1.00;;;;;;5052704;28;20215;-65
2022/05/19 09:15:08;;;;;;;4.70;3.72;;;29.40;1.00;;;;;;5054707;28;20176;-64
2022/05/19 09:17:39;;;;;;;5.25;4.07;;;29.90;1.00;;;;;;5054787;28;20175;-66
2022/05/19 09:20:11;;;;;;;10.32;5.32;;;30.10;1.00;;;;;;5049808;28;20543;-67
2022/05/19 09:22:38;;;;;;;5.68;4.40;;;29.60;1.00;;;;;;5054567;28;20196;-66
2022/05/19 09:25:08;;;;;;;9.50;4.85;;;29.30;1.00;;;;;;5053979;28;20211;-66
2022/05/19 09:27:37;;;;;;;6.40;4.07;;;29.50;1.00;;;;;;5054426;28;20242;-66
2022/05/19 09:30:08;;;;;;;8.07;3.90;;;29.90;1.00;;;;;;5054079;28;20210;-65
2022/05/19 09:32:37;;;;;;;6.25;4.20;;;29.50;1.00;;;;;;5054730;28;20188;-65
2022/05/19 09:35:07;;;;;;;7.18;4.22;;;29.30;1.00;;;;;;5053896;28;20200;-65
2022/05/19 09:37:42;;;;;;;6.88;5.97;;;29.20;1.00;;;;;;5053880;28;20675;-65
2022/05/19 09:40:19;;;;;;;4.97;3.88;;;29.50;1.00;;;;;;5054234;28;20589;-65
2022/05/19 09:42:54;;;;;;;6.07;4.28;;;29.90;1.00;;;;;;5054553;28;20377;-64
2022/05/19 09:45:23;;;;;;;6.43;3.50;;;29.60;1.00;;;;;;5054112;28;20211;-64
2022/05/19 09:47:53;;;;;;;5.95;3.97;;;29.40;1.00;;;;;;5054459;28;20206;-64
2022/05/19 09:50:24;;;;;;;7.10;3.42;;;29.50;1.00;;;;;;5054428;28;20195;-64
2022/05/19 09:52:51;;;;;;;4.80;4.32;;;29.50;1.00;;;;;;5054153;28;20187;-65
2022/05/19 09:55:24;;;;;;;6.25;3.50;;;29.70;1.00;;;;;;5053940;28;20200;-65
2022/05/19 09:57:57;;;;;;;6.55;3.60;;;30.70;1.00;;;;;;5054339;28;20545;-66
2022/05/19 10:00:37;;;;;;;5.00;3.70;;;30.60;1.00;;;;;;5054033;28;20187;-65
2022/05/19 10:03:10;;;;;;;6.03;3.63;;;31.00;1.00;;;;;;5054145;28;20195;-65
2022/05/19 10:05:46;;;;;;;4.95;3.40;;;31.30;1.00;;;;;;5053929;28;20222;-65
2022/05/19 10:08:16;;;;;;;4.78;3.40;;;31.10;1.00;;;;;;5054205;28;20584;-66
2022/05/19 10:10:55;;;;;;;4.40;4.00;;;30.90;1.00;;;;;;5053722;28;20195;-66
2022/05/19 10:13:27;;;;;;;3.80;3.35;;;30.80;1.00;;;;;;5053650;28;20187;-66
2022/05/19 10:16:01;;;;;;;6.32;3.92;;;30.80;1.00;;;;;;5053684;28;20172;-66
2022/05/19 10:18:45;;;;;;;4.50;3.70;;;30.60;1.00;;;;;;5053859;28;20198;-64
2022/05/19 10:21:31;;;;;;;5.03;3.45;;;30.30;1.00;;;;;;5053483;28;20184;-65
2022/05/19 10:24:22;;;;;;;5.10;3.35;;;30.50;1.00;;;;;;5053380;28;20548;-65
2022/05/19 10:31:02;;;;;;;4.93;3.65;;;30.60;1.00;;;;;;5050799;28;20550;-66
2022/05/19 10:32:54;;;;;;;4.65;3.33;;;31.30;1.00;;;;;;5053578;28;20180;-65
2022/05/19 10:35:27;;;;;;;9.10;3.50;;;31.40;1.00;;;;;;5053599;28;20191;-66
2022/05/19 10:38:09;;;;;;;5.97;3.63;;;31.20;1.00;;;;;;5053565;28;20596;-66
2022/05/19 10:40:58;;;;;;;4.03;3.47;;;31.20;1.00;;;;;;5053519;28;20183;-67
2022/05/19 10:43:46;;;;;;;5.80;3.10;;;31.00;1.00;;;;;;5053457;28;20183;-66
2022/05/19 10:46:15;;;;;;;5.70;4.05;;;30.50;1.00;;;;;;5053117;28;20612;-66
2022/05/19 10:49:14;;;;;;;5.07;3.30;;;30.60;1.00;;;;;;5053324;28;20616;-64
2022/05/19 10:51:57;;;;;;;4.32;3.25;;;31.10;1.00;;;;;;5052519;28;20604;-66
2022/05/19 10:54:42;;;;;;;5.57;3.38;;;30.90;1.00;;;;;;5053283;28;20486;-66
2022/05/19 10:57:39;;;;;;;4.85;3.40;;;30.50;1.00;;;;;;5053257;28;20195;-66
2022/05/19 11:00:17;;;;;;;3.65;3.00;;;30.60;1.00;;;;;;5053088;28;20201;-65
2022/05/19 11:03:11;;;;;;;4.57;3.20;;;30.60;1.00;;;;;;5053183;28;20196;-66
2022/05/19 11:05:52;;;;;;;5.38;3.42;;;31.50;1.00;;;;;;5052773;28;20852;-65
2022/05/19 11:08:30;;;;;;;3.85;3.22;;;30.80;1.00;;;;;;5053087;28;20198;-65
2022/05/19 11:11:04;;;;;;;6.72;3.47;;;30.10;1.00;;;;;;5052975;28;20635;-65
2022/05/19 11:13:50;;;;;;;6.47;3.58;;;29.70;1.00;;;;;;5053054;28;20549;-66
2022/05/19 11:16:27;;;;;;;4.90;3.33;;;30.00;1.00;;;;;;5052857;28;20187;-65
2022/05/19 11:19:00;;;;;;;4.85;3.90;;;30.20;1.00;;;;;;5052992;28;20188;-65
2022/05/19 11:21:34;;;;;;;5.28;3.60;;;30.20;1.00;;;;;;5052401;28;20230;-65
2022/05/19 11:24:07;;;;;;;11.57;4.70;;;30.10;1.00;;;;;;5052751;28;20207;-66
2022/05/19 11:26:39;;;;;;;5.03;3.20;;;30.50;1.00;;;;;;5052694;28;20211;-66
2022/05/19 11:29:15;;;;;;;3.97;3.35;;;30.80;1.00;;;;;;5052596;28;20253;-66
2022/05/19 11:31:47;;;;;;;7.68;3.35;;;31.10;1.00;;;;;;5052046;28;20230;-66
2022/05/19 11:34:21;;;;;;;5.95;3.67;;;31.20;1.00;;;;;;5052232;28;20192;-66
2022/05/19 11:36:56;;;;;;;8.70;3.72;;;31.30;1.00;;;;;;5052563;28;20482;-66
2022/05/19 11:39:31;;;;;;;4.78;3.20;;;31.40;1.00;;;;;;5052456;28;20184;-66
2022/05/19 11:42:08;;;;;;;46.38;7.38;;;30.80;1.00;;;;;;5052360;28;20179;-66
2022/05/19 11:44:38;;;;;;;9.85;3.50;;;30.90;1.00;;;;;;5052456;28;20200;-66
2022/05/19 11:47:14;;;;;;;10.55;4.10;;;30.90;1.00;;;;;;5052358;28;20227;-66
2022/05/19 11:55:26;;;;;;;8.20;3.30;;;30.70;1.00;;;;;;5052381;28;20187;-67
2022/05/19 11:57:58;;;;;;;4.72;3.53;;;30.80;1.00;;;;;;5051873;28;20691;-67
2022/05/19 12:00:29;;;;;;;5.68;3.80;;;30.60;1.00;;;;;;5052253;28;20202;-66
2022/05/19 12:03:02;;;;;;;6.47;3.90;;;30.60;1.00;;;;;;5052203;28;20199;-65
2022/05/19 12:05:33;;;;;;;5.40;3.80;;;30.40;1.00;;;;;;5052180;28;20208;-65
2022/05/19 12:08:12;;;;;;;6.57;3.92;;;30.40;1.00;;;;;;5052150;28;20365;-66
2022/05/19 12:10:43;;;;;;;6.32;4.53;;;30.00;1.00;;;;;;5052334;28;20612;-67
2022/05/19 12:13:11;;;;;;;461.15;42.58;;;29.70;1.00;;;;;;5051905;28;20763;-66
2022/05/19 12:15:41;;;;;;;140.45;13.93;;;27.50;1.00;;;;;;5052059;28;20198;-66
2022/05/19 12:18:31;;;;;;;108.38;9.65;;;25.00;1.00;;;;;;5051804;28;20199;-66
2022/05/19 12:21:32;;;;;;;49.40;6.57;;;23.40;1.00;;;;;;5051472;28;20195;-65
2022/05/19 12:24:08;;;;;;;50.50;6.50;;;22.60;10.80;;;;;;5052071;28;20191;-64
2022/05/19 12:26:51;;;;;;;22.73;4.93;;;20.70;99.90;;;;;;5052022;28;20210;-67
2022/05/19 12:29:35;;;;;;;29.88;5.25;;;19.50;99.90;;;;;;5051949;28;20270;-65
2022/05/19 12:32:15;;;;;;;13.87;2.90;;;18.00;99.90;;;;;;5051686;28;20239;-67
2022/05/19 12:34:45;;;;;;;8.33;2.90;;;18.10;99.90;;;;;;5051702;28;20628;-67
2022/05/19 12:37:36;;;;;;;11.07;2.87;;;18.00;99.90;;;;;;5052073;28;20561;-67
2022/05/19 12:40:54;;;;;;;13.03;2.83;;;18.30;99.90;;;;;;5052036;28;20226;-67
2022/05/19 12:43:38;;;;;;;9.80;2.77;;;18.40;99.90;;;;;;5051634;28;20291;-66
2022/05/19 12:46:07;;;;;;;8.77;2.77;;;18.30;99.90;;;;;;5051975;28;20207;-66
2022/05/19 12:48:51;;;;;;;10.10;2.57;;;18.40;99.90;;;;;;5055455;28;20665;-66
2022/05/19 12:51:28;;;;;;;10.10;2.50;;;18.30;99.90;;;;;;5055407;28;20195;-66
2022/05/19 12:54:05;;;;;;;6.60;2.67;;;18.40;99.90;;;;;;5055673;28;20182;-66
2022/05/19 12:56:53;;;;;;;7.90;2.63;;;18.70;99.90;;;;;;5055753;28;20550;-66
2022/05/19 12:59:42;;;;;;;8.33;2.50;;;18.80;99.90;;;;;;5055432;28;20180;-65
2022/05/19 13:02:12;;;;;;;6.57;2.63;;;18.50;99.90;;;;;;5055442;28;20230;-65
2022/05/19 13:04:44;;;;;;;4.50;2.60;;;18.10;99.90;;;;;;5055037;28;20661;-64
2022/05/19 13:07:15;;;;;;;7.97;2.90;;;18.70;99.90;;;;;;5055345;28;20208;-65
2022/05/19 13:09:54;;;;;;;5.03;2.30;;;18.60;99.90;;;;;;5055074;28;20554;-65
2022/05/19 13:12:26;;;;;;;6.00;2.70;;;18.80;99.90;;;;;;5055295;28;20196;-65
2022/05/19 13:14:57;;;;;;;3.43;2.60;;;19.00;99.90;;;;;;5055262;28;20192;-65
2022/05/19 13:17:33;;;;;;;4.53;2.80;;;19.40;99.90;;;;;;5055282;28;20179;-65
2022/05/19 13:20:02;;;;;;;3.20;2.13;;;19.70;99.90;;;;;;5055184;28;20187;-64
2022/05/19 13:22:33;;;;;;;2.90;2.10;;;20.00;99.90;;;;;;5054892;28;20297;-64
2022/05/19 13:25:05;;;;;;;5.38;2.40;;;20.60;99.90;;;;;;5054837;28;20184;-64